sensor_id;sensor_type;location;lat;lon;timestamp;pressure;altitude;pressure_sealevel;temperature;humidity
47883;BME280;37739;50.350;7.578;2022-10-20T00:02:22;100073.44;;;12.27;81.19
47883;BME280;37739;50.350;7.578;2022-10-20T00:04:50;100078.94;;;12.12;81.81
47883;BME280;37739;50.350;7.578;2022-10-20T00:07:15;100072.78;;;12.07;82.10
47883;BME280;37739;50.350;7.578;2022-10-20T00:09:41;100062.25;;;12.01;81.95
47883;BME280;37739;50.350;7.578;2022-10-20T00:12:06;100072.16;;;11.90;82.42
47883;BME280;37739;50.350;7.578;2022-10-20T00:14:34;100075.41;;;11.86;83.06
47883;BME280;37739;50.350;7.578;2022-10-20T00:16:59;100062.50;;;11.84;82.62
47883;BME280;37739;50.350;7.578;2022-10-20T00:19:26;100061.63;;;11.84;82.20
47883;BME280;37739;50.350;7.578;2022-10-20T00:21:54;100054.38;;;11.96;81.91
47883;BME280;37739;50.350;7.578;2022-10-20T00:24:21;100053.72;;;12.02;81.35
47883;BME280;37739;50.350;7.578;2022-10-20T00:26:47;100054.06;;;12.11;81.15
47883;BME280;37739;50.350;7.578;2022-10-20T00:29:12;100047.81;;;12.04;81.16
47883;BME280;37739;50.350;7.578;2022-10-20T00:31:37;100044.47;;;12.07;80.91
47883;BME280;37739;50.350;7.578;2022-10-20T00:34:05;100044.47;;;12.07;80.60
47883;BME280;37739;50.350;7.578;2022-10-20T00:36:31;100052.88;;;12.03;80.76
47883;BME280;37739;50.350;7.578;2022-10-20T00:39:00;100047.72;;;12.01;80.74
47883;BME280;37739;50.350;7.578;2022-10-20T00:41:27;100040.03;;;12.03;80.66
47883;BME280;37739;50.350;7.578;2022-10-20T00:46:29;100039.88;;;11.98;80.56
47883;BME280;37739;50.350;7.578;2022-10-20T00:48:59;100031.56;;;12.05;80.17
47883;BME280;37739;50.350;7.578;2022-10-20T00:51:27;100024.72;;;12.06;79.95
47883;BME280;37739;50.350;7.578;2022-10-20T00:54:02;100025.22;;;11.95;80.16
47883;BME280;37739;50.350;7.578;2022-10-20T00:56:35;100031.97;;;11.92;80.23
47883;BME280;37739;50.350;7.578;2022-10-20T00:59:06;100032.94;;;11.95;80.31
47883;BME280;37739;50.350;7.578;2022-10-20T01:01:32;100025.13;;;11.92;80.41
47883;BME280;37739;50.350;7.578;2022-10-20T01:03:58;100025.22;;;11.95;80.13
47883;BME280;37739;50.350;7.578;2022-10-20T01:06:27;100020.97;;;11.96;79.78
47883;BME280;37739;50.350;7.578;2022-10-20T01:08:55;100031.19;;;11.94;79.74
47883;BME280;37739;50.350;7.578;2022-10-20T01:20:26;100007.25;;;11.73;79.82
47883;BME280;37739;50.350;7.578;2022-10-20T01:28:30;99994.09;;;11.41;81.50
47883;BME280;37739;50.350;7.578;2022-10-20T01:31:00;100012.56;;;11.53;80.73
47883;BME280;37739;50.350;7.578;2022-10-20T01:36:16;99994.94;;;11.64;80.26
47883;BME280;37739;50.350;7.578;2022-10-20T01:38:57;99989.22;;;11.71;79.98
47883;BME280;37739;50.350;7.578;2022-10-20T01:41:33;99988.22;;;11.68;79.93
47883;BME280;37739;50.350;7.578;2022-10-20T01:44:07;99980.50;;;11.68;79.78
47883;BME280;37739;50.350;7.578;2022-10-20T01:46:38;99980.38;;;11.63;79.90
47883;BME280;37739;50.350;7.578;2022-10-20T01:49:08;99975.38;;;11.68;79.88
47883;BME280;37739;50.350;7.578;2022-10-20T01:51:34;99986.50;;;11.67;79.56
47883;BME280;37739;50.350;7.578;2022-10-20T01:53:59;99980.91;;;11.54;79.77
47883;BME280;37739;50.350;7.578;2022-10-20T01:59:32;99972.91;;;11.47;79.88
47883;BME280;37739;50.350;7.578;2022-10-20T02:07:30;99947.47;;;11.53;79.57
47883;BME280;37739;50.350;7.578;2022-10-20T02:10:07;99939.22;;;11.37;80.00
47883;BME280;37739;50.350;7.578;2022-10-20T02:12:37;99936.66;;;11.39;80.13
47883;BME280;37739;50.350;7.578;2022-10-20T02:15:07;99932.25;;;11.35;80.07
47883;BME280;37739;50.350;7.578;2022-10-20T02:17:38;99932.03;;;11.29;80.31
47883;BME280;37739;50.350;7.578;2022-10-20T02:20:06;99927.66;;;11.26;80.51
47883;BME280;37739;50.350;7.578;2022-10-20T02:22:32;99919.69;;;11.18;80.43
47883;BME280;37739;50.350;7.578;2022-10-20T02:24:58;99921.81;;;11.30;80.66
47883;BME280;37739;50.350;7.578;2022-10-20T02:27:31;99923.63;;;11.33;80.03
47883;BME280;37739;50.350;7.578;2022-10-20T02:30:06;99933.19;;;11.37;79.57
47883;BME280;37739;50.350;7.578;2022-10-20T02:32:34;99932.25;;;11.35;79.73
47883;BME280;37739;50.350;7.578;2022-10-20T02:35:06;99933.88;;;11.33;79.57
47883;BME280;37739;50.350;7.578;2022-10-20T02:37:36;99932.19;;;11.33;79.62
47883;BME280;37739;50.350;7.578;2022-10-20T02:40:04;99934.59;;;11.29;79.36
47883;BME280;37739;50.350;7.578;2022-10-20T02:42:35;99929.31;;;11.24;80.06
47883;BME280;37739;50.350;7.578;2022-10-20T02:45:02;99930.47;;;11.32;79.43
47883;BME280;37739;50.350;7.578;2022-10-20T02:47:29;99924.13;;;11.23;79.42
47883;BME280;37739;50.350;7.578;2022-10-20T02:49:57;99937.00;;;11.24;79.27
47883;BME280;37739;50.350;7.578;2022-10-20T02:52:22;99925.69;;;11.19;79.65
47883;BME280;37739;50.350;7.578;2022-10-20T02:54:47;99914.66;;;11.22;79.22
47883;BME280;37739;50.350;7.578;2022-10-20T02:57:15;99909.56;;;11.23;79.33
47883;BME280;37739;50.350;7.578;2022-10-20T02:59:41;99894.47;;;11.08;79.60
47883;BME280;37739;50.350;7.578;2022-10-20T03:02:06;99903.94;;;11.09;80.19
47883;BME280;37739;50.350;7.578;2022-10-20T03:04:33;99898.97;;;11.14;79.76
47883;BME280;37739;50.350;7.578;2022-10-20T03:06:59;99910.38;;;10.98;80.30
47883;BME280;37739;50.350;7.578;2022-10-20T03:09:26;99906.09;;;10.98;79.90
47883;BME280;37739;50.350;7.578;2022-10-20T03:11:52;99914.03;;;11.05;80.01
47883;BME280;37739;50.350;7.578;2022-10-20T03:14:19;99903.66;;;11.02;80.14
47883;BME280;37739;50.350;7.578;2022-10-20T03:16:45;99900.31;;;11.04;79.81
47883;BME280;37739;50.350;7.578;2022-10-20T03:19:13;99907.31;;;11.08;79.72
47883;BME280;37739;50.350;7.578;2022-10-20T03:21:40;99889.41;;;11.10;79.07
47883;BME280;37739;50.350;7.578;2022-10-20T03:24:06;99887.41;;;11.03;79.50
47883;BME280;37739;50.350;7.578;2022-10-20T03:26:31;99896.06;;;11.05;79.58
47883;BME280;37739;50.350;7.578;2022-10-20T03:28:56;99886.34;;;10.96;79.57
47883;BME280;37739;50.350;7.578;2022-10-20T03:31:24;99894.75;;;10.92;79.71
47883;BME280;37739;50.350;7.578;2022-10-20T03:33:50;99896.97;;;10.83;80.09
47883;BME280;37739;50.350;7.578;2022-10-20T03:36:15;99892.31;;;10.72;80.21
47883;BME280;37739;50.350;7.578;2022-10-20T03:38:41;99886.41;;;10.75;80.52
47883;BME280;37739;50.350;7.578;2022-10-20T03:41:11;99891.47;;;10.73;80.58
47883;BME280;37739;50.350;7.578;2022-10-20T03:43:38;99890.34;;;10.89;80.02
47883;BME280;37739;50.350;7.578;2022-10-20T03:46:05;99888.97;;;10.97;79.45
47883;BME280;37739;50.350;7.578;2022-10-20T03:48:34;99889.97;;;11.01;79.28
47883;BME280;37739;50.350;7.578;2022-10-20T03:51:00;99887.28;;;10.98;79.24
47883;BME280;37739;50.350;7.578;2022-10-20T03:53:30;99887.13;;;10.93;78.89
47883;BME280;37739;50.350;7.578;2022-10-20T03:55:55;99878.56;;;10.94;79.47
47883;BME280;37739;50.350;7.578;2022-10-20T03:58:21;99873.34;;;10.91;79.20
47883;BME280;37739;50.350;7.578;2022-10-20T04:00:46;99866.59;;;10.95;79.35
47883;BME280;37739;50.350;7.578;2022-10-20T04:03:14;99866.25;;;10.84;79.44
47883;BME280;37739;50.350;7.578;2022-10-20T04:05:40;99870.22;;;10.76;79.79
47883;BME280;37739;50.350;7.578;2022-10-20T04:08:07;99855.78;;;10.79;79.81
47883;BME280;37739;50.350;7.578;2022-10-20T04:10:35;99861.91;;;10.83;79.86
47883;BME280;37739;50.350;7.578;2022-10-20T04:13:01;99857.81;;;10.88;79.68
47883;BME280;37739;50.350;7.578;2022-10-20T04:15:32;99855.31;;;10.90;79.54
47883;BME280;37739;50.350;7.578;2022-10-20T04:18:02;99843.66;;;10.75;79.97
47883;BME280;37739;50.350;7.578;2022-10-20T04:20:30;99840.09;;;10.72;80.20
47883;BME280;37739;50.350;7.578;2022-10-20T04:22:57;99835.16;;;10.76;80.13
47883;BME280;37739;50.350;7.578;2022-10-20T04:25:23;99828.97;;;10.71;80.11
47883;BME280;37739;50.350;7.578;2022-10-20T04:27:50;99831.19;;;10.62;80.06
47883;BME280;37739;50.350;7.578;2022-10-20T04:30:18;99826.47;;;10.50;80.91
47883;BME280;37739;50.350;7.578;2022-10-20T04:32:43;99825.19;;;10.61;80.63
47883;BME280;37739;50.350;7.578;2022-10-20T04:35:09;99820.28;;;10.68;80.30
47883;BME280;37739;50.350;7.578;2022-10-20T04:37:36;99823.19;;;10.77;79.74
47883;BME280;37739;50.350;7.578;2022-10-20T04:40:02;99817.53;;;10.86;79.71
47883;BME280;37739;50.350;7.578;2022-10-20T04:42:28;99821.91;;;10.66;79.76
47883;BME280;37739;50.350;7.578;2022-10-20T04:44:55;99813.75;;;10.76;80.01
47883;BME280;37739;50.350;7.578;2022-10-20T04:47:23;99800.31;;;10.83;79.40
47883;BME280;37739;50.350;7.578;2022-10-20T04:49:51;99796.88;;;10.83;79.78
47883;BME280;37739;50.350;7.578;2022-10-20T04:52:16;99801.69;;;10.73;80.36
47883;BME280;37739;50.350;7.578;2022-10-20T04:54:41;99803.53;;;10.77;80.18
47883;BME280;37739;50.350;7.578;2022-10-20T04:57:09;99795.19;;;10.83;79.68
47883;BME280;37739;50.350;7.578;2022-10-20T04:59:35;99797.09;;;10.65;80.10
47883;BME280;37739;50.350;7.578;2022-10-20T05:02:02;99791.25;;;10.69;80.60
47883;BME280;37739;50.350;7.578;2022-10-20T05:04:30;99793.13;;;10.73;80.02
47883;BME280;37739;50.350;7.578;2022-10-20T05:06:58;99788.47;;;10.63;80.50
47883;BME280;37739;50.350;7.578;2022-10-20T05:09:23;99782.00;;;10.74;80.01
47883;BME280;37739;50.350;7.578;2022-10-20T05:11:48;99782.06;;;10.75;79.80
47883;BME280;37739;50.350;7.578;2022-10-20T05:14:16;99782.72;;;10.70;79.96
47883;BME280;37739;50.350;7.578;2022-10-20T05:16:41;99781.16;;;10.73;79.82
47883;BME280;37739;50.350;7.578;2022-10-20T05:19:08;99788.69;;;10.69;79.47
47883;BME280;37739;50.350;7.578;2022-10-20T05:21:35;99789.44;;;10.66;79.41
47883;BME280;37739;50.350;7.578;2022-10-20T05:24:04;99789.41;;;10.65;80.11
47883;BME280;37739;50.350;7.578;2022-10-20T05:26:32;99791.41;;;10.73;79.42
47883;BME280;37739;50.350;7.578;2022-10-20T05:29:03;99780.41;;;10.76;79.31
47883;BME280;37739;50.350;7.578;2022-10-20T05:31:35;99766.75;;;10.77;79.17
47883;BME280;37739;50.350;7.578;2022-10-20T05:34:01;99772.03;;;10.81;79.03
47883;BME280;37739;50.350;7.578;2022-10-20T05:36:26;99772.84;;;10.80;79.08
47883;BME280;37739;50.350;7.578;2022-10-20T05:38:56;99760.69;;;10.75;79.00
47883;BME280;37739;50.350;7.578;2022-10-20T05:41:25;99760.69;;;10.75;79.17
47883;BME280;37739;50.350;7.578;2022-10-20T05:43:54;99757.34;;;10.77;78.76
47883;BME280;37739;50.350;7.578;2022-10-20T05:46:29;99756.16;;;10.68;79.16
47883;BME280;37739;50.350;7.578;2022-10-20T05:48:56;99763.91;;;10.69;79.44
47883;BME280;37739;50.350;7.578;2022-10-20T05:51:26;99783.78;;;10.75;79.13
47883;BME280;37739;50.350;7.578;2022-10-20T05:53:58;99779.56;;;10.77;78.82
47883;BME280;37739;50.350;7.578;2022-10-20T05:56:24;99778.84;;;10.81;78.86
47883;BME280;37739;50.350;7.578;2022-10-20T05:58:53;99772.66;;;10.74;78.90
47883;BME280;37739;50.350;7.578;2022-10-20T06:01:28;99766.69;;;10.75;79.09
47883;BME280;37739;50.350;7.578;2022-10-20T06:04:06;99768.44;;;10.76;79.00
47883;BME280;37739;50.350;7.578;2022-10-20T06:06:39;99767.66;;;10.79;78.99
47883;BME280;37739;50.350;7.578;2022-10-20T06:09:07;99779.69;;;10.80;78.96
47883;BME280;37739;50.350;7.578;2022-10-20T06:11:33;99793.75;;;10.67;79.57
47883;BME280;37739;50.350;7.578;2022-10-20T06:14:01;99792.97;;;10.68;79.32
47883;BME280;37739;50.350;7.578;2022-10-20T06:16:29;99811.78;;;10.69;79.63
47883;BME280;37739;50.350;7.578;2022-10-20T06:18:57;99821.19;;;10.68;79.71
47883;BME280;37739;50.350;7.578;2022-10-20T06:21:28;99829.84;;;10.72;79.70
47883;BME280;37739;50.350;7.578;2022-10-20T06:23:53;99832.41;;;10.72;79.10
47883;BME280;37739;50.350;7.578;2022-10-20T06:26:21;99821.91;;;10.66;79.55
47883;BME280;37739;50.350;7.578;2022-10-20T06:28:53;99816.19;;;10.73;79.45
47883;BME280;37739;50.350;7.578;2022-10-20T06:31:23;99827.13;;;10.67;79.59
47883;BME280;37739;50.350;7.578;2022-10-20T06:33:53;99815.34;;;10.72;79.55
47883;BME280;37739;50.350;7.578;2022-10-20T06:36:20;99816.97;;;10.70;79.60
47883;BME280;37739;50.350;7.578;2022-10-20T06:38:52;99815.06;;;10.65;79.87
47883;BME280;37739;50.350;7.578;2022-10-20T06:41:23;99804.94;;;10.69;80.02
47883;BME280;37739;50.350;7.578;2022-10-20T06:43:48;99800.03;;;10.75;80.04
47883;BME280;37739;50.350;7.578;2022-10-20T06:46:21;99801.88;;;10.79;79.63
47883;BME280;37739;50.350;7.578;2022-10-20T06:48:46;99806.38;;;10.85;79.57
47883;BME280;37739;50.350;7.578;2022-10-20T06:51:14;99815.84;;;10.86;79.64
47883;BME280;37739;50.350;7.578;2022-10-20T06:53:45;99797.28;;;10.93;79.33
47883;BME280;37739;50.350;7.578;2022-10-20T06:56:18;99781.03;;;10.94;79.43
47883;BME280;37739;50.350;7.578;2022-10-20T06:58:48;99780.22;;;10.95;79.65
47883;BME280;37739;50.350;7.578;2022-10-20T07:01:22;99786.56;;;10.81;79.93
47883;BME280;37739;50.350;7.578;2022-10-20T07:03:48;99795.31;;;10.86;79.78
47883;BME280;37739;50.350;7.578;2022-10-20T07:06:17;99772.59;;;10.73;80.23
47883;BME280;37739;50.350;7.578;2022-10-20T07:08:43;99772.44;;;10.68;80.67
47883;BME280;37739;50.350;7.578;2022-10-20T07:11:14;99777.06;;;10.78;80.59
47883;BME280;37739;50.350;7.578;2022-10-20T07:13:40;99779.69;;;10.80;80.35
47883;BME280;37739;50.350;7.578;2022-10-20T07:16:10;99772.09;;;10.83;80.14
47883;BME280;37739;50.350;7.578;2022-10-20T07:18:38;99768.91;;;10.90;80.11
47883;BME280;37739;50.350;7.578;2022-10-20T07:21:05;99765.56;;;10.91;80.04
47883;BME280;37739;50.350;7.578;2022-10-20T07:23:32;99751.16;;;10.96;79.77
47883;BME280;37739;50.350;7.578;2022-10-20T07:28:34;99751.47;;;11.06;79.42
47883;BME280;37739;50.350;7.578;2022-10-20T07:31:07;99742.97;;;11.07;79.54
47883;BME280;37739;50.350;7.578;2022-10-20T07:33:35;99744.03;;;11.13;79.31
47883;BME280;37739;50.350;7.578;2022-10-20T07:36:15;99749.50;;;11.23;79.06
47883;BME280;37739;50.350;7.578;2022-10-20T07:38:41;99763.19;;;11.23;78.90
47883;BME280;37739;50.350;7.578;2022-10-20T07:41:09;99755.59;;;11.26;78.61
47883;BME280;37739;50.350;7.578;2022-10-20T07:43:38;99744.63;;;11.30;78.63
47883;BME280;37739;50.350;7.578;2022-10-20T07:46:04;99730.00;;;11.29;79.05
47883;BME280;37739;50.350;7.578;2022-10-20T07:48:30;99741.47;;;11.39;78.96
47883;BME280;37739;50.350;7.578;2022-10-20T07:53:49;99739.63;;;11.35;79.13
47883;BME280;37739;50.350;7.578;2022-10-20T07:56:18;99728.66;;;11.40;78.89
47883;BME280;37739;50.350;7.578;2022-10-20T07:58:47;99724.44;;;11.43;78.90
47883;BME280;37739;50.350;7.578;2022-10-20T08:01:15;99718.56;;;11.45;78.78
47883;BME280;37739;50.350;7.578;2022-10-20T08:03:41;99720.09;;;11.40;79.12
47883;BME280;37739;50.350;7.578;2022-10-20T08:06:08;99703.16;;;11.47;79.18
47883;BME280;37739;50.350;7.578;2022-10-20T08:08:36;99697.13;;;11.45;79.79
47883;BME280;37739;50.350;7.578;2022-10-20T08:11:04;99697.59;;;11.60;79.52
47883;BME280;37739;50.350;7.578;2022-10-20T08:13:29;99713.31;;;11.69;78.45
47883;BME280;37739;50.350;7.578;2022-10-20T08:15:55;99714.34;;;11.74;78.67
47883;BME280;37739;50.350;7.578;2022-10-20T08:18:22;99722.16;;;11.79;78.47
47883;BME280;37739;50.350;7.578;2022-10-20T08:20:50;99742.09;;;11.86;78.36
47883;BME280;37739;50.350;7.578;2022-10-20T08:23:16;99720.03;;;11.93;78.42
47883;BME280;37739;50.350;7.578;2022-10-20T08:25:41;99719.97;;;11.90;78.35
47883;BME280;37739;50.350;7.578;2022-10-20T08:28:07;99714.97;;;11.94;78.20
47883;BME280;37739;50.350;7.578;2022-10-20T08:30:33;99720.09;;;11.94;78.08
47883;BME280;37739;50.350;7.578;2022-10-20T08:33:01;99740.78;;;11.97;78.48
47883;BME280;37739;50.350;7.578;2022-10-20T08:35:29;99740.34;;;12.12;77.99
47883;BME280;37739;50.350;7.578;2022-10-20T08:37:57;99743.94;;;12.17;77.99
47883;BME280;37739;50.350;7.578;2022-10-20T08:40:27;99746.72;;;12.25;77.82
47883;BME280;37739;50.350;7.578;2022-10-20T08:42:58;99733.22;;;12.32;77.58
47883;BME280;37739;50.350;7.578;2022-10-20T08:45:28;99742.66;;;12.33;78.09
47883;BME280;37739;50.350;7.578;2022-10-20T08:47:57;99730.72;;;12.35;77.71
47883;BME280;37739;50.350;7.578;2022-10-20T08:50:23;99730.88;;;12.40;77.79
47883;BME280;37739;50.350;7.578;2022-10-20T08:52:54;99726.91;;;12.51;77.45
47883;BME280;37739;50.350;7.578;2022-10-20T08:55:26;99733.03;;;12.56;77.47
47883;BME280;37739;50.350;7.578;2022-10-20T08:57:57;99737.47;;;12.62;77.70
47883;BME280;37739;50.350;7.578;2022-10-20T09:00:24;99723.91;;;12.68;77.44
47883;BME280;37739;50.350;7.578;2022-10-20T09:02:50;99736.72;;;12.66;77.49
47883;BME280;37739;50.350;7.578;2022-10-20T09:05:20;99740.56;;;12.81;77.59
47883;BME280;37739;50.350;7.578;2022-10-20T09:07:47;99736.41;;;12.86;77.26
47883;BME280;37739;50.350;7.578;2022-10-20T09:12:45;99726.34;;;12.95;77.50
47883;BME280;37739;50.350;7.578;2022-10-20T09:15:12;99719.66;;;13.02;77.58
47883;BME280;37739;50.350;7.578;2022-10-20T09:17:40;99708.66;;;13.07;77.39
47883;BME280;37739;50.350;7.578;2022-10-20T09:20:15;99713.00;;;13.10;77.55
47883;BME280;37739;50.350;7.578;2022-10-20T09:22:46;99712.94;;;13.08;77.91
47883;BME280;37739;50.350;7.578;2022-10-20T09:25:15;99705.47;;;13.18;77.48
47883;BME280;37739;50.350;7.578;2022-10-20T09:27:42;99709.19;;;13.29;77.28
47883;BME280;37739;50.350;7.578;2022-10-20T09:32:50;99704.34;;;13.41;76.98
47883;BME280;37739;50.350;7.578;2022-10-20T09:35:46;99707.03;;;13.46;77.17
47883;BME280;37739;50.350;7.578;2022-10-20T09:38:25;99708.75;;;13.45;77.10
47883;BME280;37739;50.350;7.578;2022-10-20T09:41:15;99708.63;;;13.41;78.18
47883;BME280;37739;50.350;7.578;2022-10-20T09:43:50;99699.19;;;13.40;77.57
47883;BME280;37739;50.350;7.578;2022-10-20T09:46:21;99704.38;;;13.43;77.48
47883;BME280;37739;50.350;7.578;2022-10-20T09:48:48;99699.19;;;13.41;77.40
47883;BME280;37739;50.350;7.578;2022-10-20T09:51:20;99707.81;;;13.42;77.41
47883;BME280;37739;50.350;7.578;2022-10-20T09:56:39;99714.72;;;13.44;77.70
47883;BME280;37739;50.350;7.578;2022-10-20T09:59:16;99708.81;;;13.48;77.73
47883;BME280;37739;50.350;7.578;2022-10-20T10:01:54;99720.03;;;13.50;77.23
47883;BME280;37739;50.350;7.578;2022-10-20T10:04:37;99715.81;;;13.54;77.43
47883;BME280;37739;50.350;7.578;2022-10-20T10:07:05;99714.88;;;13.50;77.38
47883;BME280;37739;50.350;7.578;2022-10-20T10:12:50;99708.72;;;13.44;77.81
47883;BME280;37739;50.350;7.578;2022-10-20T10:17:48;99699.28;;;13.44;77.57
47883;BME280;37739;50.350;7.578;2022-10-20T10:22:42;99685.66;;;13.50;77.64
47883;BME280;37739;50.350;7.578;2022-10-20T10:25:17;99695.28;;;13.59;77.75
47883;BME280;37739;50.350;7.578;2022-10-20T10:27:59;99696.50;;;13.73;77.58
47883;BME280;37739;50.350;7.578;2022-10-20T10:30:31;99693.16;;;13.77;77.11
47883;BME280;37739;50.350;7.578;2022-10-20T10:32:57;99681.28;;;13.84;77.17
47883;BME280;37739;50.350;7.578;2022-10-20T10:35:28;99674.41;;;13.84;76.80
47883;BME280;37739;50.350;7.578;2022-10-20T10:37:56;99659.84;;;13.86;76.85
47883;BME280;37739;50.350;7.578;2022-10-20T10:40:31;99660.66;;;13.85;77.01
47883;BME280;37739;50.350;7.578;2022-10-20T10:45:50;99636.25;;;13.69;77.78
47883;BME280;37739;50.350;7.578;2022-10-20T10:50:59;99643.31;;;13.77;77.88
47883;BME280;37739;50.350;7.578;2022-10-20T11:12:53;99686.91;;;13.67;77.39
47883;BME280;37739;50.350;7.578;2022-10-20T11:15:30;99677.47;;;13.68;77.80
47883;BME280;37739;50.350;7.578;2022-10-20T11:26:04;99709.03;;;13.58;78.04
47883;BME280;37739;50.350;7.578;2022-10-20T11:28:41;99716.78;;;13.58;78.09
47883;BME280;37739;50.350;7.578;2022-10-20T11:31:22;99706.56;;;13.62;78.07
47883;BME280;37739;50.350;7.578;2022-10-20T11:33:55;99701.31;;;13.58;78.03
47883;BME280;37739;50.350;7.578;2022-10-20T11:36:25;99703.06;;;13.60;78.27
47883;BME280;37739;50.350;7.578;2022-10-20T11:38:55;99698.81;;;13.61;78.27
47883;BME280;37739;50.350;7.578;2022-10-20T11:41:28;99699.66;;;13.61;78.31
47883;BME280;37739;50.350;7.578;2022-10-20T11:46:42;99699.50;;;13.53;79.64
47883;BME280;37739;50.350;7.578;2022-10-20T11:49:10;99691.72;;;13.52;79.72
47883;BME280;37739;50.350;7.578;2022-10-20T11:57:18;99670.84;;;13.41;82.04
47883;BME280;37739;50.350;7.578;2022-10-20T12:08:44;99676.88;;;13.42;82.45
47883;BME280;37739;50.350;7.578;2022-10-20T12:14:02;99661.44;;;13.43;83.01
47883;BME280;37739;50.350;7.578;2022-10-20T12:19:20;99636.59;;;13.45;83.24
47883;BME280;37739;50.350;7.578;2022-10-20T12:22:05;99639.34;;;13.53;83.38
47883;BME280;37739;50.350;7.578;2022-10-20T12:24:41;99630.78;;;13.54;83.23
47883;BME280;37739;50.350;7.578;2022-10-20T12:35:03;99610.22;;;13.57;83.18
47883;BME280;37739;50.350;7.578;2022-10-20T12:37:59;99603.38;;;13.58;83.52
47883;BME280;37739;50.350;7.578;2022-10-20T12:40:48;99591.34;;;13.58;83.52
47883;BME280;37739;50.350;7.578;2022-10-20T12:43:28;99587.94;;;13.59;83.33
47883;BME280;37739;50.350;7.578;2022-10-20T12:46:03;99590.44;;;13.56;83.58
47883;BME280;37739;50.350;7.578;2022-10-20T12:48:32;99596.44;;;13.57;83.28
47883;BME280;37739;50.350;7.578;2022-10-20T12:51:02;99596.44;;;13.55;83.28
47883;BME280;37739;50.350;7.578;2022-10-20T12:53:35;99603.38;;;13.58;83.61
47883;BME280;37739;50.350;7.578;2022-10-20T12:56:08;99608.69;;;13.65;83.13
47883;BME280;37739;50.350;7.578;2022-10-20T12:59:19;99605.31;;;13.69;83.80
47883;BME280;37739;50.350;7.578;2022-10-20T13:10:37;99590.75;;;13.71;84.88
47883;BME280;37739;50.350;7.578;2022-10-20T13:15:29;99613.91;;;13.70;85.21
47883;BME280;37739;50.350;7.578;2022-10-20T13:18:06;99620.88;;;13.72;85.38
47883;BME280;37739;50.350;7.578;2022-10-20T13:28:43;99614.81;;;13.70;85.82
47883;BME280;37739;50.350;7.578;2022-10-20T13:34:27;99609.78;;;13.77;85.66
47883;BME280;37739;50.350;7.578;2022-10-20T13:42:46;99602.88;;;13.75;86.00
47883;BME280;37739;50.350;7.578;2022-10-20T13:47:58;99594.16;;;13.69;86.12
47883;BME280;37739;50.350;7.578;2022-10-20T13:50:39;99611.41;;;13.73;86.43
47883;BME280;37739;50.350;7.578;2022-10-20T13:53:25;99606.34;;;13.76;86.36
47883;BME280;37739;50.350;7.578;2022-10-20T13:55:58;99601.06;;;13.71;86.49
47883;BME280;37739;50.350;7.578;2022-10-20T13:58:26;99611.38;;;13.71;86.75
47883;BME280;37739;50.350;7.578;2022-10-20T14:01:05;99612.25;;;13.72;87.55
47883;BME280;37739;50.350;7.578;2022-10-20T14:03:41;99608.81;;;13.71;87.22
47883;BME280;37739;50.350;7.578;2022-10-20T14:08:52;99604.47;;;13.69;87.69
47883;BME280;37739;50.350;7.578;2022-10-20T14:11:21;99598.50;;;13.71;87.71
47883;BME280;37739;50.350;7.578;2022-10-20T14:13:47;99600.13;;;13.68;88.12
47883;BME280;37739;50.350;7.578;2022-10-20T14:16:18;99592.31;;;13.63;88.78
47883;BME280;37739;50.350;7.578;2022-10-20T14:19:02;99593.22;;;13.65;89.40
47883;BME280;37739;50.350;7.578;2022-10-20T14:21:37;99597.50;;;13.66;89.16
47883;BME280;37739;50.350;7.578;2022-10-20T14:24:14;99594.84;;;13.62;90.09
47883;BME280;37739;50.350;7.578;2022-10-20T14:26:42;99606.06;;;13.64;89.96
47883;BME280;37739;50.350;7.578;2022-10-20T14:29:11;99599.19;;;13.63;90.01
47883;BME280;37739;50.350;7.578;2022-10-20T14:31:40;99606.03;;;13.61;90.50
47883;BME280;37739;50.350;7.578;2022-10-20T14:34:20;99599.94;;;13.59;90.79
47883;BME280;37739;50.350;7.578;2022-10-20T14:36:54;99600.88;;;13.61;90.76
47883;BME280;37739;50.350;7.578;2022-10-20T14:39:31;99588.75;;;13.58;91.07
47883;BME280;37739;50.350;7.578;2022-10-20T14:41:59;99574.97;;;13.56;91.23
47883;BME280;37739;50.350;7.578;2022-10-20T14:44:28;99573.25;;;13.57;91.09
47883;BME280;37739;50.350;7.578;2022-10-20T14:47:00;99578.41;;;13.57;91.95
47883;BME280;37739;50.350;7.578;2022-10-20T14:49:32;99560.38;;;13.55;92.29
47883;BME280;37739;50.350;7.578;2022-10-20T14:52:03;99546.53;;;13.51;92.84
47883;BME280;37739;50.350;7.578;2022-10-20T14:59:56;99563.75;;;13.54;93.71
47883;BME280;37739;50.350;7.578;2022-10-20T15:02:36;99586.13;;;13.55;93.27
47883;BME280;37739;50.350;7.578;2022-10-20T15:05:29;99572.19;;;13.45;94.95
47883;BME280;37739;50.350;7.578;2022-10-20T15:08:06;99557.66;;;13.50;94.38
47883;BME280;37739;50.350;7.578;2022-10-20T15:10:32;99544.84;;;13.53;94.06
47883;BME280;37739;50.350;7.578;2022-10-20T15:13:00;99564.53;;;13.50;94.77
47883;BME280;37739;50.350;7.578;2022-10-20T15:15:27;99572.31;;;13.51;94.79
47883;BME280;37739;50.350;7.578;2022-10-20T15:23:03;99559.28;;;13.45;94.86
47883;BME280;37739;50.350;7.578;2022-10-20T15:25:52;99561.88;;;13.45;95.55
47883;BME280;37739;50.350;7.578;2022-10-20T15:28:24;99556.78;;;13.48;95.45
47883;BME280;37739;50.350;7.578;2022-10-20T15:30:52;99545.72;;;13.54;94.92
47883;BME280;37739;50.350;7.578;2022-10-20T15:33:17;99545.75;;;13.55;94.66
47883;BME280;37739;50.350;7.578;2022-10-20T15:35:42;99551.78;;;13.56;94.87
47883;BME280;37739;50.350;7.578;2022-10-20T15:38:14;99547.47;;;13.57;94.81
47883;BME280;37739;50.350;7.578;2022-10-20T15:40:43;99553.44;;;13.54;95.06
47883;BME280;37739;50.350;7.578;2022-10-20T15:43:14;99548.94;;;13.44;95.69
47883;BME280;37739;50.350;7.578;2022-10-20T15:45:43;99555.91;;;13.48;95.80
47883;BME280;37739;50.350;7.578;2022-10-20T15:48:09;99541.31;;;13.48;95.53
47883;BME280;37739;50.350;7.578;2022-10-20T15:50:40;99531.84;;;13.49;95.52
47883;BME280;37739;50.350;7.578;2022-10-20T15:53:10;99523.25;;;13.48;95.25